createdAt,value
2018-12-24T00:02:29.999Z,7.10
2018-12-24T00:05:11.679Z,7.00
2018-12-24T00:07:52.567Z,7.00
2018-12-24T00:10:33.854Z,7.00
2018-12-24T00:13:15.053Z,6.90
2018-12-24T00:15:56.728Z,6.90
2018-12-24T00:18:38.364Z,6.90
2018-12-24T00:21:19.403Z,6.80
2018-12-24T00:24:00.483Z,6.80
2018-12-24T00:26:41.407Z,6.70
2018-12-24T00:29:22.592Z,6.70
2018-12-24T00:32:04.299Z,6.60
2018-12-24T00:34:45.239Z,6.60
2018-12-24T00:37:27.079Z,6.60
2018-12-24T00:40:08.003Z,6.50
2018-12-24T00:42:49.327Z,6.50
2018-12-24T00:45:31.019Z,6.40
2018-12-24T00:48:12.267Z,6.40
2018-12-24T00:50:53.316Z,6.30
2018-12-24T00:53:34.414Z,6.20
2018-12-24T00:56:15.396Z,6.20
2018-12-24T00:58:57.247Z,6.20
2018-12-24T01:01:38.107Z,6.20
2018-12-24T01:04:19.007Z,6.20
2018-12-24T01:06:58.847Z,6.10
2018-12-24T01:09:47.623Z,6.10
2018-12-24T01:12:36.379Z,6.00
2018-12-24T01:15:25.146Z,6.00
2018-12-24T01:18:13.858Z,6.10
2018-12-24T01:21:02.620Z,6.00
2018-12-24T01:23:51.392Z,6.10
2018-12-24T01:26:40.139Z,6.00
2018-12-24T01:29:28.910Z,6.00
2018-12-24T01:32:17.662Z,6.00
2018-12-24T01:35:06.439Z,6.00
2018-12-24T01:37:55.204Z,5.90
2018-12-24T01:40:43.974Z,5.90
2018-12-24T01:43:32.727Z,5.90
2018-12-24T01:46:21.504Z,5.80
2018-12-24T01:52:04.166Z,5.80
2018-12-24T01:54:52.942Z,5.80
2018-12-24T01:57:34.077Z,5.70
2018-12-24T02:00:15.135Z,5.70
2018-12-24T02:02:56.085Z,5.70
2018-12-24T02:05:37.247Z,5.70
2018-12-24T02:08:18.190Z,5.70
2018-12-24T02:10:59.063Z,5.70
2018-12-24T02:13:40.036Z,5.60
2018-12-24T02:16:21.802Z,5.60
2018-12-24T02:19:02.859Z,5.60
2018-12-24T02:21:43.900Z,5.60
2018-12-24T02:24:24.811Z,5.60
2018-12-24T02:27:06.350Z,5.50
2018-12-24T02:29:47.495Z,5.50
2018-12-24T02:32:29.275Z,5.50
2018-12-24T02:35:10.393Z,5.50
2018-12-24T02:37:51.244Z,5.50
2018-12-24T02:40:33.069Z,5.50
2018-12-24T02:43:13.997Z,5.50
2018-12-24T02:45:55.232Z,5.40
2018-12-24T02:48:36.234Z,5.40
2018-12-24T02:51:17.072Z,5.40
2018-12-24T02:53:58.822Z,5.30
2018-12-24T02:56:39.739Z,5.30
2018-12-24T02:59:20.825Z,5.20
2018-12-24T03:02:02.009Z,5.10
2018-12-24T03:04:43.756Z,5.00
2018-12-24T03:07:25.004Z,5.00
2018-12-24T03:10:06.157Z,5.00
2018-12-24T03:12:47.073Z,5.00
2018-12-24T03:15:28.864Z,4.90
2018-12-24T03:18:09.903Z,4.90
2018-12-24T03:20:50.797Z,4.90
2018-12-24T03:23:31.612Z,4.80
2018-12-24T03:26:12.635Z,4.70
2018-12-24T03:28:54.140Z,4.60
2018-12-24T03:31:35.393Z,4.60
2018-12-24T03:34:16.451Z,4.60
2018-12-24T03:36:57.249Z,4.50
2018-12-24T03:39:38.253Z,4.40
2018-12-24T03:42:19.844Z,4.30
2018-12-24T03:45:00.731Z,4.30
2018-12-24T03:47:42.214Z,4.20
2018-12-24T03:50:23.919Z,4.20
2018-12-24T03:53:05.595Z,4.30
2018-12-24T03:55:47.367Z,4.20
2018-12-24T03:58:28.828Z,4.30
2018-12-24T04:01:10.015Z,4.30
2018-12-24T04:03:50.948Z,4.30
2018-12-24T04:06:31.798Z,4.30
2018-12-24T04:09:12.785Z,4.40
2018-12-24T04:11:53.915Z,4.30
2018-12-24T04:14:34.980Z,4.30
2018-12-24T04:17:16.147Z,4.30
2018-12-24T04:19:57.901Z,4.30
2018-12-24T04:22:38.888Z,4.30
2018-12-24T04:25:20.005Z,4.30
2018-12-24T04:28:01.043Z,4.30
2018-12-24T04:30:42.823Z,4.30
2018-12-24T04:33:23.816Z,4.30
2018-12-24T04:36:04.840Z,4.40
2018-12-24T04:38:45.931Z,4.50
2018-12-24T04:41:26.902Z,4.50
2018-12-24T04:44:07.851Z,4.60
2018-12-24T04:46:49.036Z,4.60
2018-12-24T04:49:30.284Z,4.60
2018-12-24T04:52:12.108Z,4.60
2018-12-24T04:54:53.107Z,4.60
2018-12-24T04:57:34.779Z,4.60
2018-12-24T05:00:16.612Z,4.60
2018-12-24T05:02:56.453Z,4.60
2018-12-24T05:05:45.252Z,4.60
2018-12-24T05:08:34.023Z,4.60
2018-12-24T05:11:22.756Z,4.60
2018-12-24T05:14:11.541Z,4.60
2018-12-24T05:17:00.283Z,4.60
2018-12-24T05:19:49.055Z,4.60
2018-12-24T05:22:37.831Z,4.60
2018-12-24T05:25:26.580Z,4.50
2018-12-24T05:28:15.349Z,4.60
2018-12-24T05:31:04.095Z,4.60
2018-12-24T05:33:52.869Z,4.60
2018-12-24T05:36:41.627Z,4.60
2018-12-24T05:39:30.396Z,4.60
2018-12-24T05:42:19.145Z,4.70
2018-12-24T05:45:07.921Z,4.60
2018-12-24T05:47:56.672Z,4.60
2018-12-24T05:50:45.434Z,4.60
2018-12-24T05:53:34.216Z,4.60
2018-12-24T05:56:15.340Z,4.60
2018-12-24T05:58:56.541Z,4.60
2018-12-24T06:01:37.497Z,4.60
2018-12-24T06:04:19.115Z,4.60
2018-12-24T06:07:00.679Z,4.60
2018-12-24T06:09:41.678Z,4.60
2018-12-24T06:12:22.674Z,4.60
2018-12-24T06:15:04.142Z,4.60
2018-12-24T06:17:45.827Z,4.60
2018-12-24T06:20:27.646Z,4.60
2018-12-24T06:23:08.598Z,4.50
2018-12-24T06:25:50.283Z,4.50
2018-12-24T06:28:31.184Z,4.50
2018-12-24T06:31:11.043Z,4.40
2018-12-24T06:33:59.779Z,4.40
2018-12-24T06:36:48.543Z,4.30
2018-12-24T06:39:37.279Z,4.40
2018-12-24T06:42:26.069Z,4.40
2018-12-24T06:45:14.836Z,4.30
2018-12-24T06:48:03.574Z,4.30
2018-12-24T06:50:52.346Z,4.30
2018-12-24T06:53:41.099Z,4.30
2018-12-24T06:56:21.957Z,4.30
2018-12-24T06:59:05.283Z,4.30
2018-12-24T07:01:46.192Z,4.30
2018-12-24T07:04:27.650Z,4.30
2018-12-24T07:07:09.584Z,4.20
2018-12-24T07:09:51.203Z,4.20
2018-12-24T07:12:31.176Z,4.20
2018-12-24T07:15:19.905Z,4.10
2018-12-24T07:18:08.672Z,4.10
2018-12-24T07:20:57.423Z,4.10
2018-12-24T07:23:46.200Z,4.00
2018-12-24T07:26:34.987Z,4.00
2018-12-24T07:29:23.727Z,4.00
2018-12-24T07:32:12.496Z,4.00
2018-12-24T07:35:01.244Z,4.10
2018-12-24T07:37:50.010Z,4.10
2018-12-24T07:40:38.756Z,4.20
2018-12-24T07:43:27.523Z,4.20
2018-12-24T07:46:16.276Z,4.30
2018-12-24T07:49:05.096Z,4.30
2018-12-24T07:51:53.845Z,4.40
2018-12-24T07:54:42.611Z,4.30
2018-12-24T07:57:24.131Z,4.30
2018-12-24T08:00:05.175Z,4.40
2018-12-24T08:02:46.027Z,4.40
2018-12-24T08:05:27.060Z,4.40
2018-12-24T08:08:08.216Z,4.50
2018-12-24T08:10:48.056Z,4.60
2018-12-24T08:13:36.818Z,4.70
2018-12-24T08:16:25.576Z,4.80
2018-12-24T08:19:14.349Z,4.90
2018-12-24T08:22:03.092Z,5.30
2018-12-24T08:24:51.866Z,5.60
2018-12-24T08:27:40.607Z,5.50
2018-12-24T08:30:29.401Z,5.50
2018-12-24T08:33:18.139Z,5.50
2018-12-24T08:36:06.907Z,5.50
2018-12-24T08:38:55.691Z,5.50
2018-12-24T08:41:44.504Z,5.40
2018-12-24T08:44:41.769Z,5.30
2018-12-24T08:47:23.601Z,5.20
2018-12-24T08:50:12.376Z,5.10
2018-12-24T08:53:01.119Z,5.10
2018-12-24T08:55:49.916Z,5.10
2018-12-24T08:58:38.662Z,5.10
2018-12-24T09:01:27.427Z,5.10
2018-12-24T09:04:16.176Z,5.10
2018-12-24T09:07:04.948Z,5.10
2018-12-24T09:09:53.696Z,5.00
2018-12-24T09:12:42.482Z,5.10
2018-12-24T09:15:31.235Z,5.10
2018-12-24T09:18:20.117Z,5.20
2018-12-24T09:21:08.875Z,5.30
2018-12-24T09:23:57.623Z,5.50
2018-12-24T09:26:46.439Z,5.50
2018-12-24T09:29:35.208Z,5.50
2018-12-24T09:32:23.981Z,5.50
2018-12-24T09:35:12.723Z,5.40
2018-12-24T09:38:01.491Z,5.40
2018-12-24T09:40:50.276Z,5.40
2018-12-24T09:43:39.045Z,5.40
2018-12-24T09:46:27.816Z,5.50
2018-12-24T09:49:16.569Z,5.50
2018-12-24T09:52:05.344Z,5.50
2018-12-24T09:54:54.089Z,5.50
2018-12-24T09:57:35.420Z,5.50
2018-12-24T10:00:16.587Z,5.50
2018-12-24T10:02:58.311Z,5.60
2018-12-24T10:05:39.597Z,5.60
2018-12-24T10:08:20.525Z,5.70
2018-12-24T10:11:01.498Z,5.80
2018-12-24T10:13:42.735Z,6.00
2018-12-24T10:16:24.161Z,6.10
2018-12-24T10:18:53.980Z,6.10
2018-12-24T10:21:42.715Z,6.00
2018-12-24T10:24:31.491Z,6.00
2018-12-24T10:27:20.311Z,6.00
2018-12-24T10:30:09.115Z,6.00
2018-12-24T10:32:57.876Z,5.90
2018-12-24T10:35:53.339Z,5.90
2018-12-24T10:38:42.572Z,5.80
2018-12-24T10:41:31.271Z,6.30
2018-12-24T10:44:20.043Z,6.40
2018-12-24T10:47:08.792Z,6.20
2018-12-24T10:49:57.551Z,5.90
2018-12-24T10:52:46.305Z,5.60
2018-12-24T10:55:35.100Z,5.40
2018-12-24T10:58:23.846Z,5.30
2018-12-24T11:01:12.617Z,5.20
2018-12-24T11:04:01.363Z,5.20
2018-12-24T11:06:50.131Z,5.20
2018-12-24T11:09:39.100Z,5.30
2018-12-24T11:12:27.859Z,5.40
2018-12-24T11:15:21.319Z,5.50
2018-12-24T11:18:07.020Z,5.60
2018-12-24T11:20:55.803Z,5.60
2018-12-24T11:23:44.535Z,5.60
2018-12-24T11:26:33.323Z,5.60
2018-12-24T11:29:22.071Z,5.50
2018-12-24T11:32:10.843Z,5.40
2018-12-24T11:34:59.596Z,5.40
2018-12-24T11:37:48.364Z,5.40
2018-12-24T11:40:37.136Z,5.40
2018-12-24T11:43:25.877Z,5.40
2018-12-24T11:46:14.648Z,5.30
2018-12-24T11:49:03.395Z,5.30
2018-12-24T11:51:52.164Z,5.30
2018-12-24T11:54:40.907Z,5.20
2018-12-24T11:57:22.723Z,5.20
2018-12-24T12:00:04.131Z,5.20
2018-12-24T12:02:45.535Z,5.10
2018-12-24T12:05:26.408Z,5.10
2018-12-24T12:08:07.475Z,5.20
2018-12-24T12:10:48.567Z,5.20
2018-12-24T12:13:28.428Z,5.30
2018-12-24T12:16:17.217Z,5.40
2018-12-24T12:19:05.976Z,5.40
2018-12-24T12:21:54.783Z,5.60
2018-12-24T12:24:43.535Z,5.70
2018-12-24T12:27:32.298Z,5.90
2018-12-24T12:30:21.054Z,5.90
2018-12-24T12:33:09.819Z,6.00
2018-12-24T12:35:58.576Z,6.20
2018-12-24T12:38:47.368Z,6.50
2018-12-24T12:41:37.496Z,6.50
2018-12-24T12:44:26.275Z,6.60
2018-12-24T12:47:15.023Z,6.40
2018-12-24T12:50:03.797Z,6.40
2018-12-24T12:52:52.558Z,6.50
2018-12-24T12:55:41.311Z,6.40
2018-12-24T12:58:21.303Z,6.50
2018-12-24T13:01:10.050Z,6.30
2018-12-24T13:03:58.811Z,6.20
2018-12-24T13:06:47.555Z,6.10
2018-12-24T13:09:36.323Z,5.90
2018-12-24T13:12:25.523Z,5.70
2018-12-24T13:15:14.375Z,5.50
2018-12-24T13:18:03.167Z,5.50
2018-12-24T13:20:51.927Z,5.40
2018-12-24T13:23:40.692Z,5.50
2018-12-24T13:26:29.435Z,5.50
2018-12-24T13:29:18.211Z,5.40
2018-12-24T13:32:06.955Z,5.40
2018-12-24T13:34:55.728Z,5.30
2018-12-24T13:37:44.479Z,5.40
2018-12-24T13:40:33.247Z,5.40
2018-12-24T13:43:21.996Z,5.50
2018-12-24T13:46:11.279Z,5.50
2018-12-24T13:49:00.028Z,5.50
2018-12-24T13:51:48.810Z,5.50
2018-12-24T13:54:37.620Z,5.50
2018-12-24T13:57:18.802Z,5.40
2018-12-24T13:59:59.700Z,5.30
2018-12-24T14:02:40.923Z,5.30
2018-12-24T14:05:22.596Z,5.30
2018-12-24T14:08:03.648Z,5.20
2018-12-24T14:10:44.656Z,5.20
2018-12-24T14:13:25.772Z,5.20
2018-12-24T14:16:06.656Z,5.10
2018-12-24T14:18:48.438Z,5.00
2018-12-24T14:21:29.904Z,4.90
2018-12-24T14:24:11.383Z,4.80
2018-12-24T14:26:52.373Z,4.70
2018-12-24T14:29:33.417Z,4.70
2018-12-24T14:32:14.218Z,4.70
2018-12-24T14:34:55.318Z,4.80
2018-12-24T14:37:36.300Z,4.80
2018-12-24T14:40:17.819Z,4.90
2018-12-24T14:42:59.351Z,4.90
2018-12-24T14:45:41.051Z,4.90
2018-12-24T14:48:22.361Z,4.90
2018-12-24T14:51:03.659Z,4.90
2018-12-24T14:53:45.243Z,4.90
2018-12-24T14:56:26.492Z,4.90
2018-12-24T14:59:06.398Z,4.90
2018-12-24T15:01:55.171Z,4.80
2018-12-24T15:04:43.922Z,4.70
2018-12-24T15:07:32.690Z,4.60
2018-12-24T15:10:21.443Z,4.50
2018-12-24T15:13:10.213Z,4.50
2018-12-24T15:15:58.962Z,4.30
2018-12-24T15:18:47.741Z,4.20
2018-12-24T15:21:36.484Z,4.20
2018-12-24T15:24:25.272Z,4.10
2018-12-24T15:27:14.012Z,4.00
2018-12-24T15:30:02.775Z,3.80
2018-12-24T15:32:51.548Z,3.80
2018-12-24T15:35:40.286Z,3.70
2018-12-24T15:38:29.059Z,3.60
2018-12-24T15:41:17.832Z,3.50
2018-12-24T15:44:06.600Z,3.40
2018-12-24T15:46:55.346Z,3.30
2018-12-24T15:49:44.107Z,3.20
2018-12-24T15:52:32.856Z,3.20
2018-12-24T15:55:21.628Z,3.10
2018-12-24T15:58:03.440Z,3.00
2018-12-24T16:00:44.495Z,2.90
2018-12-24T16:03:25.627Z,2.80
2018-12-24T16:06:07.316Z,2.70
2018-12-24T16:08:48.200Z,2.70
2018-12-24T16:11:29.159Z,2.60
2018-12-24T16:14:10.267Z,2.60
2018-12-24T16:16:51.362Z,2.40
2018-12-24T16:19:32.263Z,2.30
2018-12-24T16:22:13.316Z,2.20
2018-12-24T16:24:54.768Z,2.10
2018-12-24T16:27:36.081Z,2.10
2018-12-24T16:30:16.968Z,2.10
2018-12-24T16:32:58.019Z,2.10
2018-12-24T16:35:39.025Z,2.10
2018-12-24T16:38:19.989Z,2.20
2018-12-24T16:41:01.271Z,2.30
2018-12-24T16:43:42.907Z,2.30
2018-12-24T16:46:24.611Z,2.30
2018-12-24T16:49:05.610Z,2.30
2018-12-24T16:51:46.583Z,2.20
2018-12-24T16:54:27.532Z,2.10
2018-12-24T16:57:08.623Z,2.10
2018-12-24T16:59:49.907Z,2.00
2018-12-24T17:02:31.527Z,1.90
2018-12-24T17:05:11.460Z,1.80
2018-12-24T17:08:00.224Z,1.90
2018-12-24T17:10:48.995Z,1.90
2018-12-24T17:13:37.740Z,2.00
2018-12-24T17:16:26.508Z,2.20
2018-12-24T17:19:15.406Z,2.30
2018-12-24T17:22:04.369Z,2.40
2018-12-24T17:24:53.199Z,2.50
2018-12-24T17:27:42.129Z,2.60
2018-12-24T17:30:31.006Z,2.60
2018-12-24T17:33:19.964Z,2.70
2018-12-24T17:36:08.683Z,2.80
2018-12-24T17:38:57.550Z,2.80
2018-12-24T17:41:46.413Z,2.90
2018-12-24T17:44:35.162Z,2.90
2018-12-24T17:47:25.017Z,2.90
2018-12-24T17:50:45.153Z,2.90
2018-12-24T17:56:41.252Z,2.90
2018-12-24T17:59:31.423Z,2.90
2018-12-24T18:02:21.690Z,2.90
2018-12-24T18:05:10.387Z,3.00
2018-12-24T18:07:59.523Z,2.90
2018-12-24T18:10:50.511Z,2.80
2018-12-24T18:13:38.988Z,2.80
2018-12-24T18:16:27.704Z,2.70
2018-12-24T18:19:16.485Z,2.70
2018-12-24T18:22:05.231Z,2.70
2018-12-24T18:24:54.015Z,2.60
2018-12-24T18:27:42.926Z,2.60
2018-12-24T18:33:30.713Z,2.60
2018-12-24T18:36:19.717Z,2.50
2018-12-24T18:39:08.624Z,2.40
2018-12-24T18:41:57.503Z,2.40
2018-12-24T18:44:46.421Z,2.30
2018-12-24T18:47:35.327Z,2.30
2018-12-24T18:50:24.228Z,2.30
2018-12-24T18:53:13.078Z,2.20
2018-12-24T18:56:01.988Z,2.20
2018-12-24T18:58:43.786Z,2.20
2018-12-24T19:01:24.722Z,2.10
2018-12-24T19:04:06.009Z,2.10
2018-12-24T19:06:47.058Z,2.10
2018-12-24T19:09:27.936Z,2.10
2018-12-24T19:12:09.000Z,2.10
2018-12-24T19:14:50.518Z,2.00
2018-12-24T19:17:31.529Z,1.90
2018-12-24T19:20:12.800Z,1.80
2018-12-24T19:22:53.823Z,1.70
2018-12-24T19:25:34.955Z,1.60
2018-12-24T19:28:16.012Z,1.60
2018-12-24T19:30:57.139Z,1.50
2018-12-24T19:33:38.031Z,1.50
2018-12-24T19:36:18.969Z,1.40
2018-12-24T19:38:59.871Z,1.40
2018-12-24T19:41:41.107Z,1.30
2018-12-24T19:44:22.811Z,1.30
2018-12-24T19:47:04.085Z,1.20
2018-12-24T19:49:45.514Z,1.20
2018-12-24T19:52:26.519Z,1.10
2018-12-24T19:55:07.287Z,1.00
2018-12-24T19:57:48.431Z,0.90
2018-12-24T20:00:29.982Z,0.80
2018-12-24T20:03:11.566Z,0.70
2018-12-24T20:05:52.627Z,0.60
2018-12-24T20:08:33.704Z,0.50
2018-12-24T20:11:14.762Z,0.40
2018-12-24T20:13:55.611Z,0.20
2018-12-24T20:16:36.624Z,0.20
2018-12-24T20:19:17.558Z,0.10
2018-12-24T20:21:59.249Z,0.10
2018-12-24T20:24:40.437Z,0.10
2018-12-24T20:27:21.811Z,0.10
2018-12-24T20:30:03.623Z,0.10
2018-12-24T20:32:44.984Z,0.00
2018-12-24T20:35:26.323Z,-0.10
2018-12-24T20:38:07.344Z,-0.10
2018-12-24T20:40:48.183Z,-0.20
2018-12-24T20:43:29.109Z,-0.30
2018-12-24T20:46:10.056Z,-0.30
2018-12-24T20:48:52.516Z,-0.30
2018-12-24T20:51:33.619Z,-0.30
2018-12-24T20:54:15.319Z,-0.30
2018-12-24T20:56:57.134Z,-0.40
2018-12-24T20:59:39.884Z,-0.40
2018-12-24T21:02:20.955Z,-0.40
2018-12-24T21:05:01.971Z,-0.40
2018-12-24T21:07:43.035Z,-0.40
2018-12-24T21:10:24.043Z,-0.40
2018-12-24T21:13:05.856Z,-0.40
2018-12-24T21:15:47.806Z,-0.40
2018-12-24T21:18:29.507Z,-0.50
2018-12-24T21:21:10.460Z,-0.50
2018-12-24T21:23:51.964Z,-0.50
2018-12-24T21:26:33.631Z,-0.50
2018-12-24T21:29:15.392Z,-0.50
2018-12-24T21:31:56.403Z,-0.40
2018-12-24T21:34:38.147Z,-0.50
2018-12-24T21:37:19.280Z,-0.50
2018-12-24T21:40:00.203Z,-0.60
2018-12-24T21:42:41.496Z,-0.80
2018-12-24T21:45:22.766Z,-0.80
2018-12-24T21:48:03.743Z,-0.90
2018-12-24T21:50:44.924Z,-0.90
2018-12-24T21:53:25.926Z,-0.90
2018-12-24T21:56:06.903Z,-0.90
2018-12-24T21:58:48.752Z,-0.80
2018-12-24T22:01:30.019Z,-0.80
2018-12-24T22:04:11.204Z,-0.80
2018-12-24T22:06:52.502Z,-0.80
2018-12-24T22:09:33.439Z,-0.80
2018-12-24T22:12:14.420Z,-0.70
2018-12-24T22:14:55.923Z,-0.70
2018-12-24T22:17:35.786Z,-0.70
2018-12-24T22:20:24.613Z,-0.70
2018-12-24T22:23:13.413Z,-0.70
2018-12-24T22:26:02.163Z,-0.70
2018-12-24T22:28:50.941Z,-0.70
2018-12-24T22:31:40.075Z,-0.70
2018-12-24T22:34:28.843Z,-0.70
2018-12-24T22:37:17.596Z,-0.80
2018-12-24T22:43:21.076Z,-0.80
2018-12-24T22:46:10.307Z,-0.80
2018-12-24T22:48:59.040Z,-0.90
2018-12-24T22:51:47.876Z,-0.80
2018-12-24T22:54:36.652Z,-0.70
2018-12-24T22:57:17.779Z,-0.60
2018-12-24T22:59:58.611Z,-0.40
2018-12-24T23:02:39.890Z,-0.30
2018-12-24T23:05:21.198Z,-0.20
2018-12-24T23:08:02.096Z,-0.10
2018-12-24T23:10:43.120Z,-0.10
2018-12-24T23:13:24.012Z,0.00
2018-12-24T23:16:05.743Z,0.00
2018-12-24T23:18:49.603Z,0.00
2018-12-24T23:21:29.827Z,0.00
2018-12-24T23:24:11.473Z,0.00
2018-12-24T23:26:52.383Z,0.00
2018-12-24T23:29:33.319Z,0.00
2018-12-24T23:32:14.743Z,0.00
2018-12-24T23:34:55.687Z,0.10
2018-12-24T23:37:37.060Z,0.00
2018-12-24T23:40:18.580Z,0.00
2018-12-24T23:42:59.789Z,0.00
2018-12-24T23:45:41.018Z,0.00
2018-12-24T23:48:21.998Z,-0.10
2018-12-24T23:51:03.759Z,-0.10
2018-12-24T23:53:44.719Z,-0.10
2018-12-24T23:56:26.259Z,0.00
2018-12-24T23:59:07.695Z,-0.10
